createdAt,value
2022-08-27T00:00:25.122Z,23.23
2022-08-27T00:03:11.544Z,23.21
2022-08-27T00:05:44.668Z,23.19
2022-08-27T00:08:17.046Z,23.15
2022-08-27T00:10:49.247Z,23.12
2022-08-27T00:13:21.439Z,23.08
2022-08-27T00:15:53.674Z,23.05
2022-08-27T00:18:27.157Z,23.03
2022-08-27T00:20:59.292Z,23.01
2022-08-27T00:23:31.911Z,22.98
2022-08-27T00:26:04.556Z,22.97
2022-08-27T00:28:38.209Z,22.94
2022-08-27T00:31:12.590Z,22.92
2022-08-27T00:33:45.072Z,22.89
2022-08-27T00:36:17.748Z,22.88
2022-08-27T00:38:53.871Z,22.85
2022-08-27T00:41:26.423Z,22.82
2022-08-27T00:44:00.385Z,22.80
2022-08-27T00:46:43.435Z,22.77
2022-08-27T00:49:20.405Z,22.74
2022-08-27T00:51:58.677Z,22.70
2022-08-27T00:54:31.629Z,22.65
2022-08-27T00:57:05.017Z,22.63
2022-08-27T00:59:37.880Z,22.60
2022-08-27T01:02:26.309Z,22.58
2022-08-27T01:05:04.220Z,22.54
2022-08-27T01:07:41.229Z,22.51
2022-08-27T01:10:17.152Z,22.46
2022-08-27T01:12:53.391Z,22.42
2022-08-27T01:15:29.135Z,22.39
2022-08-27T01:18:04.250Z,22.37
2022-08-27T01:20:43.524Z,22.35
2022-08-27T01:23:23.828Z,22.31
2022-08-27T01:25:56.093Z,22.27
2022-08-27T01:28:35.740Z,22.23
2022-08-27T01:31:11.797Z,22.20
2022-08-27T01:33:54.367Z,22.17
2022-08-27T01:36:27.416Z,22.14
2022-08-27T01:38:59.632Z,22.10
2022-08-27T01:41:33.063Z,22.09
2022-08-27T01:44:05.511Z,22.07
2022-08-27T01:46:37.916Z,22.07
2022-08-27T01:49:12.505Z,22.06
2022-08-27T01:51:44.677Z,22.06
2022-08-27T01:54:16.834Z,22.04
2022-08-27T01:56:48.935Z,22.02
2022-08-27T01:59:21.069Z,22.00
2022-08-27T02:01:55.973Z,21.99
2022-08-27T02:04:28.202Z,21.97
2022-08-27T02:07:00.627Z,21.96
2022-08-27T02:09:33.422Z,21.94
2022-08-27T02:12:06.479Z,21.92
2022-08-27T02:14:38.658Z,21.90
2022-08-27T02:17:12.577Z,21.88
2022-08-27T02:19:45.471Z,21.88
2022-08-27T02:22:17.611Z,21.86
2022-08-27T02:24:49.824Z,21.85
2022-08-27T02:27:22.696Z,21.83
2022-08-27T02:29:55.634Z,21.80
2022-08-27T02:32:31.856Z,21.78
2022-08-27T02:35:03.986Z,21.75
2022-08-27T02:37:37.738Z,21.72
2022-08-27T02:40:14.028Z,21.68
2022-08-27T02:42:46.812Z,21.63
2022-08-27T02:45:20.963Z,21.61
2022-08-27T02:47:54.157Z,21.56
2022-08-27T02:50:27.356Z,21.52
2022-08-27T02:53:00.214Z,21.47
2022-08-27T02:55:32.535Z,21.42
2022-08-27T02:58:05.729Z,21.38
2022-08-27T03:00:38.153Z,21.34
2022-08-27T03:03:11.116Z,21.29
2022-08-27T03:05:43.364Z,21.24
2022-08-27T03:08:15.514Z,21.18
2022-08-27T03:10:47.784Z,21.14
2022-08-27T03:13:20.174Z,21.12
2022-08-27T03:15:52.291Z,21.10
2022-08-27T03:18:25.686Z,21.09
2022-08-27T03:20:59.500Z,21.07
2022-08-27T03:23:34.235Z,21.05
2022-08-27T03:26:11.801Z,21.05
2022-08-27T03:28:44.185Z,21.05
2022-08-27T03:31:27.110Z,21.03
2022-08-27T03:34:02.611Z,21.00
2022-08-27T03:36:35.056Z,20.98
2022-08-27T03:39:07.211Z,20.97
2022-08-27T03:41:45.558Z,20.95
2022-08-27T03:44:27.814Z,20.93
2022-08-27T03:47:00.213Z,20.92
2022-08-27T03:49:32.930Z,20.90
2022-08-27T03:52:05.452Z,20.88
2022-08-27T03:54:39.387Z,20.88
2022-08-27T03:57:11.997Z,20.89
2022-08-27T03:59:44.135Z,20.89
2022-08-27T04:02:16.674Z,20.91
2022-08-27T04:04:48.834Z,20.93
2022-08-27T04:07:21.341Z,20.95
2022-08-27T04:09:53.780Z,20.98
2022-08-27T04:12:26.671Z,21.00
2022-08-27T04:14:58.796Z,21.01
2022-08-27T04:17:31.791Z,21.04
2022-08-27T04:20:24.978Z,21.07
2022-08-27T04:22:56.567Z,21.11
2022-08-27T04:25:28.917Z,21.14
2022-08-27T04:28:01.071Z,21.21
2022-08-27T04:30:33.435Z,21.31
2022-08-27T04:33:05.573Z,21.47
2022-08-27T04:35:38.023Z,21.63
2022-08-27T04:38:10.751Z,21.73
2022-08-27T04:40:56.927Z,21.86
2022-08-27T04:43:29.825Z,22.06
2022-08-27T04:46:02.002Z,22.29
2022-08-27T04:48:34.610Z,22.73
2022-08-27T04:51:12.522Z,23.25
2022-08-27T04:53:46.857Z,23.83
2022-08-27T04:56:21.916Z,24.42
2022-08-27T04:58:55.427Z,24.98
2022-08-27T05:01:29.960Z,25.58
2022-08-27T05:04:02.353Z,26.03
2022-08-27T05:06:35.375Z,26.37
2022-08-27T05:09:08.417Z,26.86
2022-08-27T05:11:40.737Z,27.42
2022-08-27T05:14:17.409Z,28.04
2022-08-27T05:16:49.606Z,28.64
2022-08-27T05:19:22.074Z,29.16
2022-08-27T05:21:55.573Z,29.62
2022-08-27T05:24:28.051Z,30.15
2022-08-27T05:27:00.179Z,30.66
2022-08-27T05:29:33.539Z,31.23
2022-08-27T05:32:06.374Z,31.86
2022-08-27T05:34:38.591Z,32.35
2022-08-27T05:37:11.380Z,32.79
2022-08-27T05:39:44.662Z,33.08
2022-08-27T05:42:16.817Z,33.27
2022-08-27T05:44:48.904Z,33.46
2022-08-27T05:47:21.123Z,33.72
2022-08-27T05:49:55.006Z,34.04
2022-08-27T05:52:27.491Z,34.29
2022-08-27T05:54:59.830Z,34.48
2022-08-27T05:57:32.156Z,34.87
2022-08-27T06:00:18.747Z,35.37
2022-08-27T06:02:51.964Z,36.01
2022-08-27T06:05:24.770Z,36.73
2022-08-27T06:07:57.057Z,37.50
2022-08-27T06:10:29.696Z,38.27
2022-08-27T06:13:03.670Z,38.92
2022-08-27T06:15:37.469Z,39.44
2022-08-27T06:18:10.469Z,39.96
2022-08-27T06:20:42.824Z,40.31
2022-08-27T06:23:15.627Z,40.66
2022-08-27T06:25:48.483Z,41.02
2022-08-27T06:28:23.723Z,41.25
2022-08-27T06:30:55.924Z,41.27
2022-08-27T06:33:28.084Z,41.30
2022-08-27T06:36:01.702Z,41.45
2022-08-27T06:38:34.348Z,41.49
2022-08-27T06:41:16.227Z,41.84
2022-08-27T06:43:56.835Z,42.45
2022-08-27T06:46:31.297Z,42.77
2022-08-27T06:49:03.916Z,43.31
2022-08-27T06:51:38.318Z,43.78
2022-08-27T06:54:12.688Z,44.23
2022-08-27T06:56:45.734Z,44.59
2022-08-27T06:59:19.963Z,44.93
2022-08-27T07:01:52.986Z,45.23
2022-08-27T07:04:32.121Z,45.40
2022-08-27T07:07:08.316Z,45.67
2022-08-27T07:09:40.740Z,46.04
2022-08-27T07:12:13.072Z,46.50
2022-08-27T07:14:45.284Z,46.66
2022-08-27T07:17:17.896Z,46.73
2022-08-27T07:19:50.014Z,47.07
2022-08-27T07:22:22.221Z,47.39
2022-08-27T07:24:54.621Z,47.65
2022-08-27T07:27:26.754Z,47.83
2022-08-27T07:29:59.378Z,47.80
2022-08-27T07:32:34.047Z,47.81
2022-08-27T07:35:09.603Z,47.77
2022-08-27T07:37:43.361Z,47.67
2022-08-27T07:40:17.375Z,47.69
2022-08-27T07:43:06.891Z,47.68
2022-08-27T07:45:47.736Z,47.50
2022-08-27T07:48:20.026Z,47.32
2022-08-27T07:50:52.796Z,47.00
2022-08-27T07:53:25.104Z,46.76
2022-08-27T07:55:57.704Z,46.67
2022-08-27T07:58:30.285Z,46.35
2022-08-27T08:01:03.223Z,46.25
2022-08-27T08:03:35.518Z,46.37
2022-08-27T08:06:09.725Z,46.73
2022-08-27T08:08:43.888Z,46.98
2022-08-27T08:11:18.500Z,47.07
2022-08-27T08:13:49.491Z,46.96
2022-08-27T08:16:27.270Z,46.78
2022-08-27T08:19:03.348Z,46.53
2022-08-27T08:21:35.735Z,46.72
2022-08-27T08:24:08.756Z,47.01
2022-08-27T08:26:42.209Z,47.25
2022-08-27T08:29:18.158Z,47.43
2022-08-27T08:31:51.277Z,47.32
2022-08-27T08:34:23.632Z,47.27
2022-08-27T08:36:55.983Z,47.65
2022-08-27T08:39:28.274Z,48.07
2022-08-27T08:42:03.297Z,48.38
2022-08-27T08:44:38.061Z,48.61
2022-08-27T08:47:15.750Z,48.66
2022-08-27T08:49:56.494Z,48.62
2022-08-27T08:52:44.359Z,48.74
2022-08-27T08:55:25.294Z,48.48
2022-08-27T08:58:08.880Z,48.25
2022-08-27T09:00:43.781Z,48.05
2022-08-27T09:03:18.197Z,48.26
2022-08-27T09:05:56.236Z,48.60
2022-08-27T09:08:38.866Z,48.72
2022-08-27T09:11:17.296Z,48.61
2022-08-27T09:13:54.595Z,48.50
2022-08-27T09:16:26.975Z,48.39
2022-08-27T09:18:59.729Z,48.04
2022-08-27T09:21:42.105Z,47.77
2022-08-27T09:24:20.493Z,47.53
2022-08-27T09:26:52.699Z,47.26
2022-08-27T09:29:30.360Z,47.08
2022-08-27T09:32:06.480Z,46.75
2022-08-27T09:34:40.568Z,46.47
2022-08-27T09:37:16.714Z,45.99
2022-08-27T09:39:53.689Z,45.69
2022-08-27T09:42:35.344Z,45.46
2022-08-27T09:45:13.938Z,45.33
2022-08-27T09:47:48.939Z,45.31
2022-08-27T09:50:25.597Z,45.33
2022-08-27T09:52:59.776Z,45.24
2022-08-27T09:55:44.750Z,45.21
2022-08-27T09:58:23.351Z,45.32
2022-08-27T10:01:04.976Z,45.37
2022-08-27T10:03:37.180Z,45.41
2022-08-27T10:06:11.230Z,45.28
2022-08-27T10:08:47.545Z,45.35
2022-08-27T10:11:24.845Z,45.28
2022-08-27T10:14:06.160Z,45.38
2022-08-27T10:16:55.552Z,45.07
2022-08-27T10:19:44.273Z,44.94
2022-08-27T10:22:24.261Z,44.84
2022-08-27T10:25:10.643Z,44.52
2022-08-27T10:27:52.842Z,44.36
2022-08-27T10:30:33.042Z,44.16
2022-08-27T10:33:11.915Z,44.00
2022-08-27T10:35:54.996Z,44.00
2022-08-27T10:38:42.385Z,43.83
2022-08-27T10:41:22.202Z,43.51
2022-08-27T10:44:18.087Z,43.00
2022-08-27T10:47:11.926Z,42.35
2022-08-27T10:49:52.632Z,42.12
2022-08-27T10:52:31.222Z,41.93
2022-08-27T10:55:10.595Z,41.49
2022-08-27T10:58:03.263Z,41.01
2022-08-27T11:00:44.957Z,40.72
2022-08-27T11:03:23.850Z,40.50
2022-08-27T11:05:57.344Z,40.34
2022-08-27T11:08:37.709Z,40.25
2022-08-27T11:14:14.969Z,39.95
2022-08-27T11:16:51.810Z,39.54
2022-08-27T11:19:30.254Z,39.26
2022-08-27T11:22:12.097Z,39.19
2022-08-27T11:24:51.231Z,39.22
2022-08-27T11:27:38.820Z,39.23
2022-08-27T11:30:20.286Z,39.27
2022-08-27T11:33:02.044Z,39.18
2022-08-27T11:35:43.519Z,38.92
2022-08-27T11:38:48.375Z,38.51
2022-08-27T11:41:48.860Z,38.30
2022-08-27T11:44:24.600Z,37.98
2022-08-27T11:47:09.596Z,37.34
2022-08-27T11:49:47.343Z,36.56
2022-08-27T11:52:29.361Z,35.99
2022-08-27T11:55:15.939Z,35.66
2022-08-27T11:57:48.848Z,35.33
2022-08-27T12:00:30.599Z,35.09
2022-08-27T12:03:05.667Z,34.90
2022-08-27T12:05:45.938Z,34.88
2022-08-27T12:08:31.742Z,34.90
2022-08-27T12:11:19.580Z,34.78
2022-08-27T12:14:01.250Z,34.81
2022-08-27T12:16:44.534Z,34.81
2022-08-27T12:19:31.133Z,34.78
2022-08-27T12:22:19.664Z,34.81
2022-08-27T12:24:55.697Z,34.94
2022-08-27T12:27:36.135Z,35.11
2022-08-27T12:30:24.187Z,35.30
2022-08-27T12:32:57.978Z,35.60
2022-08-27T12:35:34.343Z,35.83
2022-08-27T12:38:17.786Z,36.00
2022-08-27T12:40:53.822Z,36.12
2022-08-27T12:43:28.324Z,36.21
2022-08-27T12:46:03.141Z,36.25
2022-08-27T12:48:42.274Z,36.32
2022-08-27T12:51:20.046Z,36.20
2022-08-27T12:53:57.697Z,36.07
2022-08-27T12:56:40.954Z,36.09
2022-08-27T12:59:38.022Z,36.01
2022-08-27T13:02:26.169Z,36.07
2022-08-27T13:04:59.084Z,35.95
2022-08-27T13:07:38.031Z,35.78
2022-08-27T13:10:18.303Z,35.66
2022-08-27T13:13:08.950Z,35.43
2022-08-27T13:15:45.215Z,35.13
2022-08-27T13:18:16.288Z,34.92
2022-08-27T13:20:53.139Z,34.76
2022-08-27T13:23:28.237Z,34.70
2022-08-27T13:26:07.785Z,34.59
2022-08-27T13:28:43.278Z,34.35
2022-08-27T13:31:16.086Z,34.19
2022-08-27T13:33:50.999Z,34.13
2022-08-27T13:36:32.363Z,34.12
2022-08-27T13:39:07.137Z,34.09
2022-08-27T13:41:41.173Z,34.09
2022-08-27T13:44:16.895Z,33.99
2022-08-27T13:46:53.801Z,33.95
2022-08-27T13:49:29.243Z,33.96
2022-08-27T13:52:11.434Z,33.97
2022-08-27T13:54:47.584Z,33.92
2022-08-27T13:57:30.575Z,33.91
2022-08-27T14:00:17.118Z,33.76
2022-08-27T14:02:56.355Z,33.60
2022-08-27T14:05:34.166Z,33.47
2022-08-27T14:08:17.840Z,33.36
2022-08-27T14:11:00.314Z,33.26
2022-08-27T14:13:41.797Z,33.13
2022-08-27T14:16:29.294Z,33.05
2022-08-27T14:19:09.858Z,33.04
2022-08-27T14:21:43.600Z,33.09
2022-08-27T14:24:16.262Z,33.22
2022-08-27T14:26:52.266Z,33.32
2022-08-27T14:29:25.039Z,33.39
2022-08-27T14:31:57.200Z,33.46
2022-08-27T14:34:29.412Z,33.53
2022-08-27T14:37:02.248Z,33.59
2022-08-27T14:39:34.730Z,33.64
2022-08-27T14:42:08.566Z,33.66
2022-08-27T14:44:41.800Z,33.60
2022-08-27T14:47:16.293Z,33.53
2022-08-27T14:49:49.415Z,33.45
2022-08-27T14:52:21.675Z,33.37
2022-08-27T14:54:53.880Z,33.28
2022-08-27T14:57:26.067Z,33.17
2022-08-27T14:59:58.370Z,33.06
2022-08-27T15:02:30.607Z,32.94
2022-08-27T15:05:11.833Z,32.81
2022-08-27T15:07:47.094Z,32.65
2022-08-27T15:10:20.585Z,32.49
2022-08-27T15:12:54.572Z,32.36
2022-08-27T15:15:27.553Z,32.25
2022-08-27T15:17:59.823Z,32.14
2022-08-27T15:20:32.110Z,32.04
2022-08-27T15:23:04.839Z,31.93
2022-08-27T15:25:36.966Z,31.79
2022-08-27T15:28:09.672Z,31.68
2022-08-27T15:30:43.358Z,31.54
2022-08-27T15:33:15.902Z,31.47
2022-08-27T15:35:48.071Z,31.39
2022-08-27T15:38:20.184Z,31.30
2022-08-27T15:40:52.719Z,31.20
2022-08-27T15:43:26.571Z,31.12
2022-08-27T15:45:59.763Z,31.02
2022-08-27T15:48:32.277Z,30.94
2022-08-27T15:51:10.143Z,30.85
2022-08-27T15:53:43.712Z,30.76
2022-08-27T15:56:15.879Z,30.66
2022-08-27T15:58:48.377Z,30.58
2022-08-27T16:01:26.700Z,30.50
2022-08-27T16:04:00.608Z,30.42
2022-08-27T16:06:35.086Z,30.34
2022-08-27T16:09:07.775Z,30.27
2022-08-27T16:11:41.010Z,30.20
2022-08-27T16:14:13.237Z,30.14
2022-08-27T16:16:50.101Z,30.08
2022-08-27T16:19:22.746Z,30.01
2022-08-27T16:21:55.743Z,29.95
2022-08-27T16:24:28.057Z,29.88
2022-08-27T16:27:00.645Z,29.81
2022-08-27T16:29:32.686Z,29.75
2022-08-27T16:32:05.717Z,29.69
2022-08-27T16:34:38.220Z,29.63
2022-08-27T16:37:10.288Z,29.59
2022-08-27T16:39:42.431Z,29.54
2022-08-27T16:42:15.158Z,29.49
2022-08-27T16:44:47.325Z,29.43
2022-08-27T16:47:19.800Z,29.38
2022-08-27T16:50:09.594Z,29.34
2022-08-27T16:52:57.101Z,29.27
2022-08-27T16:55:29.484Z,29.22
2022-08-27T16:58:01.632Z,29.16
2022-08-27T17:00:33.889Z,29.10
2022-08-27T17:03:06.511Z,29.04
2022-08-27T17:05:40.960Z,28.99
2022-08-27T17:08:17.165Z,28.94
2022-08-27T17:10:53.040Z,28.89
2022-08-27T17:13:29.404Z,28.84
2022-08-27T17:16:02.225Z,28.80
2022-08-27T17:18:35.559Z,28.75
2022-08-27T17:21:08.241Z,28.70
2022-08-27T17:23:42.232Z,28.64
2022-08-27T17:26:15.973Z,28.59
2022-08-27T17:28:48.783Z,28.53
2022-08-27T17:31:27.853Z,28.48
2022-08-27T17:34:01.977Z,28.44
2022-08-27T17:36:36.776Z,28.40
2022-08-27T17:39:09.372Z,28.36
2022-08-27T17:41:43.587Z,28.30
2022-08-27T17:44:23.993Z,28.25
2022-08-27T17:46:57.988Z,28.20
2022-08-27T17:49:31.504Z,28.15
2022-08-27T17:52:08.803Z,28.09
2022-08-27T17:54:43.800Z,28.02
2022-08-27T17:57:19.852Z,27.96
2022-08-27T17:59:53.543Z,27.90
2022-08-27T18:02:30.075Z,27.86
2022-08-27T18:05:02.632Z,27.80
2022-08-27T18:07:39.622Z,27.76
2022-08-27T18:10:14.771Z,27.72
2022-08-27T18:12:47.636Z,27.65
2022-08-27T18:15:23.108Z,27.61
2022-08-27T18:17:56.086Z,27.57
2022-08-27T18:20:30.866Z,27.52
2022-08-27T18:23:04.467Z,27.47
2022-08-27T18:25:38.725Z,27.40
2022-08-27T18:28:13.342Z,27.34
2022-08-27T18:30:46.832Z,27.29
2022-08-27T18:33:19.570Z,27.23
2022-08-27T18:35:51.978Z,27.16
2022-08-27T18:38:24.245Z,27.09
2022-08-27T18:40:57.884Z,27.03
2022-08-27T18:43:34.986Z,26.97
2022-08-27T18:46:05.693Z,26.91
2022-08-27T18:48:38.424Z,26.84
2022-08-27T18:51:14.780Z,26.78
2022-08-27T18:53:48.196Z,26.72
2022-08-27T18:56:22.005Z,26.65
2022-08-27T18:58:54.113Z,26.61
2022-08-27T19:01:28.512Z,26.56
2022-08-27T19:04:00.818Z,26.50
2022-08-27T19:06:33.109Z,26.44
2022-08-27T19:09:05.735Z,26.39
2022-08-27T19:11:37.947Z,26.33
2022-08-27T19:14:10.165Z,26.29
2022-08-27T19:16:47.279Z,26.24
2022-08-27T19:19:20.121Z,26.20
2022-08-27T19:21:54.061Z,26.15
2022-08-27T19:24:26.567Z,26.10
2022-08-27T19:26:58.806Z,26.05
2022-08-27T19:29:30.914Z,26.01
2022-08-27T19:32:03.494Z,25.97
2022-08-27T19:34:35.693Z,25.93
2022-08-27T19:37:09.772Z,25.88
2022-08-27T19:39:41.871Z,25.83
2022-08-27T19:42:14.039Z,25.79
2022-08-27T19:44:46.198Z,25.74
2022-08-27T19:47:25.342Z,25.70
2022-08-27T19:49:58.011Z,25.66
2022-08-27T19:52:30.495Z,25.61
2022-08-27T19:55:13.549Z,25.56
2022-08-27T19:57:47.484Z,25.52
2022-08-27T20:00:24.815Z,25.46
2022-08-27T20:03:00.560Z,25.42
2022-08-27T20:05:32.730Z,25.37
2022-08-27T20:08:06.068Z,25.35
2022-08-27T20:10:39.141Z,25.32
2022-08-27T20:13:11.408Z,25.28
2022-08-27T20:15:43.722Z,25.25
2022-08-27T20:18:18.775Z,25.21
2022-08-27T20:20:51.072Z,25.18
2022-08-27T20:23:25.197Z,25.16
2022-08-27T20:26:01.176Z,25.13
2022-08-27T20:28:39.341Z,25.11
2022-08-27T20:31:11.812Z,25.07
2022-08-27T20:33:44.062Z,25.03
2022-08-27T20:36:16.290Z,25.00
2022-08-27T20:38:48.471Z,24.98
2022-08-27T20:41:20.628Z,24.95
2022-08-27T20:43:52.867Z,24.92
2022-08-27T20:46:27.839Z,24.90
2022-08-27T20:48:59.865Z,24.86
2022-08-27T20:51:32.065Z,24.81
2022-08-27T20:54:24.247Z,24.76
2022-08-27T20:56:56.344Z,24.71
2022-08-27T20:59:46.693Z,24.68
2022-08-27T21:02:24.255Z,24.63
2022-08-27T21:04:57.706Z,24.60
2022-08-27T21:07:29.939Z,24.57
2022-08-27T21:10:02.015Z,24.53
2022-08-27T21:12:34.452Z,24.49
2022-08-27T21:15:09.493Z,24.45
2022-08-27T21:17:41.634Z,24.41
2022-08-27T21:20:14.981Z,24.38
2022-08-27T21:22:47.154Z,24.35
2022-08-27T21:25:19.326Z,24.32
2022-08-27T21:27:51.425Z,24.28
2022-08-27T21:30:24.741Z,24.25
2022-08-27T21:32:57.377Z,24.21
2022-08-27T21:35:31.988Z,24.19
2022-08-27T21:38:04.749Z,24.15
2022-08-27T21:40:36.973Z,24.13
2022-08-27T21:43:09.239Z,24.10
2022-08-27T21:45:43.045Z,24.07
2022-08-27T21:48:15.106Z,24.04
2022-08-27T21:50:47.992Z,24.02
2022-08-27T21:53:21.936Z,23.99
2022-08-27T21:55:56.344Z,23.96
2022-08-27T21:58:28.516Z,23.93
2022-08-27T22:01:02.012Z,23.90
2022-08-27T22:03:36.004Z,23.88
2022-08-27T22:06:11.393Z,23.85
2022-08-27T22:08:43.868Z,23.82
2022-08-27T22:11:20.605Z,23.78
2022-08-27T22:13:57.700Z,23.75
2022-08-27T22:16:30.346Z,23.73
2022-08-27T22:19:02.619Z,23.69
2022-08-27T22:21:34.847Z,23.68
2022-08-27T22:24:07.723Z,23.65
2022-08-27T22:26:40.008Z,23.63
2022-08-27T22:29:12.191Z,23.61
2022-08-27T22:31:44.437Z,23.59
2022-08-27T22:34:17.595Z,23.57
2022-08-27T22:36:50.026Z,23.55
2022-08-27T22:39:22.259Z,23.53
2022-08-27T22:41:57.852Z,23.52
2022-08-27T22:44:31.470Z,23.50
2022-08-27T22:47:03.792Z,23.48
2022-08-27T22:49:35.938Z,23.47
2022-08-27T22:52:08.379Z,23.46
2022-08-27T22:54:40.417Z,23.45
2022-08-27T22:57:12.988Z,23.44
2022-08-27T22:59:45.025Z,23.42
2022-08-27T23:02:17.424Z,23.40
2022-08-27T23:04:56.908Z,23.38
2022-08-27T23:07:29.536Z,23.35
2022-08-27T23:10:02.053Z,23.32
2022-08-27T23:12:37.795Z,23.29
2022-08-27T23:15:13.765Z,23.28
2022-08-27T23:17:45.926Z,23.25
2022-08-27T23:20:21.538Z,23.23
2022-08-27T23:22:55.171Z,23.19
2022-08-27T23:25:47.018Z,23.15
2022-08-27T23:28:19.429Z,23.09
2022-08-27T23:30:51.918Z,23.04
2022-08-27T23:33:24.127Z,23.00
2022-08-27T23:35:56.273Z,22.96
2022-08-27T23:38:28.527Z,22.91
2022-08-27T23:41:00.915Z,22.86
2022-08-27T23:43:33.346Z,22.81
2022-08-27T23:46:05.701Z,22.77
2022-08-27T23:48:39.472Z,22.74
2022-08-27T23:51:12.108Z,22.71
2022-08-27T23:53:44.202Z,22.68
2022-08-27T23:56:16.283Z,22.65
2022-08-27T23:58:49.052Z,22.62
